Airfield :
LOGIN :

Register | Disclaimer

   EN    FR    IT 

 










Legend :    VFR   Marginal VFR   IFR   Intensive IFR   Very Intensive IFR
Visi :
Ceiling :
>= 8 km
>= 3000ft
5 to 8 km
1000 to 3000 ft
1500m to 5 km
500 to 1000 ft
800 to 1500m
200 to 500 ft
< 800m
< 200 ft
Symbols :   Thunderstorms  Fog  Heavy snow  Heavy precipitations  Wind > 20 kt
SIGMETs :     Misc.  Thunderstorms  Icing  Turbulence  Mountain Waves  Volcanic Ashes






- Airport Elevation : 1411 ft
- IATA code : ZHI


LSZG - Grenchen

CURRENT METAR :
  • 182020Z AUTO 26003KT 9999 BKN050 05/02 Q1020

EXPIRED METARs :
  • 181950Z AUTO VRB01KT 9999 FEW050 05/01 Q1020
  • 181920Z AUTO 06005KT 9999 SCT050 SCT060 BKN070 06/01 Q1020
  • 181850Z AUTO 07003KT 030V100 9999 NSC 07/01 Q1020
  • 181820Z 07003KT 9999 FEW037 SCT045 06/01 Q1019 NOSIG
  • 181750Z AUTO 10004KT 9999 NCD 07/02 Q1019

TAF TAF LSZG
Valid from the 18 at 15:00 until the 19 at 00:00 UTC


181425Z 1815/1824 05007KT 9999 FEW035 SCT050
ATIS : +41 32 396 96 33



MET'MAP, your aeronautical weather chart ! - Copyright ORBIFLY December 2007 - Disclaimer

ORBIFLY MET'MAP TEAM :

Programming & Development : Alexandra Zaïnal
Concept & original design : Baudouin d'Aumeries
Assistance for programming : Marc-Olivier Méhu
Technical & hardware support : Manuel Goepfert

Contact : metmap@orbifly.com




SOURCES & CREDITS :

   NOAA